sensor_id;sensor_type;location;lat;lon;timestamp;pressure;altitude;pressure_sealevel;temperature;humidity
71716;BME280;59568;52.128;5.434;2024-01-15T00:00:26;100477.78;;;-0.15;100.00
71716;BME280;59568;52.128;5.434;2024-01-15T00:02:53;100474.88;;;-0.19;100.00
71716;BME280;59568;52.128;5.434;2024-01-15T00:05:19;100474.31;;;-0.21;100.00
71716;BME280;59568;52.128;5.434;2024-01-15T00:07:46;100473.19;;;-0.25;100.00
71716;BME280;59568;52.128;5.434;2024-01-15T00:10:13;100459.03;;;-0.28;100.00
71716;BME280;59568;52.128;5.434;2024-01-15T00:12:40;100468.50;;;-0.28;100.00
71716;BME280;59568;52.128;5.434;2024-01-15T00:15:09;100461.47;;;-0.33;100.00
71716;BME280;59568;52.128;5.434;2024-01-15T00:17:36;100465.47;;;-0.37;100.00
71716;BME280;59568;52.128;5.434;2024-01-15T00:20:03;100454.88;;;-0.41;100.00
71716;BME280;59568;52.128;5.434;2024-01-15T00:22:30;100453.31;;;-0.42;100.00
71716;BME280;59568;52.128;5.434;2024-01-15T00:24:58;100455.88;;;-0.42;100.00
71716;BME280;59568;52.128;5.434;2024-01-15T00:27:25;100446.28;;;-0.46;100.00
71716;BME280;59568;52.128;5.434;2024-01-15T00:29:52;100444.91;;;-0.49;100.00
71716;BME280;59568;52.128;5.434;2024-01-15T00:32:19;100442.81;;;-0.52;100.00
71716;BME280;59568;52.128;5.434;2024-01-15T00:34:46;100441.22;;;-0.53;100.00
71716;BME280;59568;52.128;5.434;2024-01-15T00:37:13;100440.66;;;-0.55;100.00
71716;BME280;59568;52.128;5.434;2024-01-15T00:39:40;100433.44;;;-0.58;100.00
71716;BME280;59568;52.128;5.434;2024-01-15T00:42:07;100428.38;;;-0.65;100.00
71716;BME280;59568;52.128;5.434;2024-01-15T00:44:35;100431.19;;;-0.66;100.00
71716;BME280;59568;52.128;5.434;2024-01-15T00:47:01;100424.69;;;-0.69;100.00
71716;BME280;59568;52.128;5.434;2024-01-15T00:49:28;100423.34;;;-0.71;100.00
71716;BME280;59568;52.128;5.434;2024-01-15T00:51:55;100415.88;;;-0.73;100.00
71716;BME280;59568;52.128;5.434;2024-01-15T00:54:22;100404.28;;;-0.75;100.00
71716;BME280;59568;52.128;5.434;2024-01-15T00:56:49;100402.94;;;-0.78;100.00
71716;BME280;59568;52.128;5.434;2024-01-15T00:59:16;100408.06;;;-0.78;100.00
71716;BME280;59568;52.128;5.434;2024-01-15T01:01:44;100413.63;;;-0.81;100.00
71716;BME280;59568;52.128;5.434;2024-01-15T01:04:13;100413.28;;;-0.85;100.00
71716;BME280;59568;52.128;5.434;2024-01-15T01:06:40;100410.94;;;-0.86;100.00
71716;BME280;59568;52.128;5.434;2024-01-15T01:09:07;100411.16;;;-0.88;100.00
71716;BME280;59568;52.128;5.434;2024-01-15T01:11:34;100403.91;;;-0.91;100.00
71716;BME280;59568;52.128;5.434;2024-01-15T01:14:00;100405.13;;;-0.93;100.00
71716;BME280;59568;52.128;5.434;2024-01-15T01:16:28;100399.22;;;-0.94;100.00
71716;BME280;59568;52.128;5.434;2024-01-15T01:18:55;100399.22;;;-0.94;100.00
71716;BME280;59568;52.128;5.434;2024-01-15T01:21:22;100393.31;;;-0.94;100.00
71716;BME280;59568;52.128;5.434;2024-01-15T01:23:49;100393.31;;;-0.94;100.00
71716;BME280;59568;52.128;5.434;2024-01-15T01:26:17;100396.88;;;-0.95;100.00
71716;BME280;59568;52.128;5.434;2024-01-15T01:28:44;100396.09;;;-0.96;100.00
71716;BME280;59568;52.128;5.434;2024-01-15T01:31:11;100404.56;;;-0.95;100.00
71716;BME280;59568;52.128;5.434;2024-01-15T01:33:41;100401.22;;;-0.96;100.00
71716;BME280;59568;52.128;5.434;2024-01-15T01:36:09;100407.78;;;-1.00;100.00
71716;BME280;59568;52.128;5.434;2024-01-15T01:38:37;100407.78;;;-1.00;100.00
71716;BME280;59568;52.128;5.434;2024-01-15T01:41:04;100404.44;;;-1.01;100.00
71716;BME280;59568;52.128;5.434;2024-01-15T01:43:31;100410.00;;;-1.04;100.00
71716;BME280;59568;52.128;5.434;2024-01-15T01:46:00;100403.53;;;-1.06;100.00
71716;BME280;59568;52.128;5.434;2024-01-15T01:48:28;100392.72;;;-1.08;100.00
71716;BME280;59568;52.128;5.434;2024-01-15T01:50:59;100395.84;;;-1.06;100.00
71716;BME280;59568;52.128;5.434;2024-01-15T01:53:27;100396.81;;;-1.07;100.00
71716;BME280;59568;52.128;5.434;2024-01-15T01:55:56;100396.81;;;-1.07;100.00
71716;BME280;59568;52.128;5.434;2024-01-15T01:58:24;100396.63;;;-1.06;100.00
71716;BME280;59568;52.128;5.434;2024-01-15T02:00:52;100394.06;;;-1.06;100.00
71716;BME280;59568;52.128;5.434;2024-01-15T02:03:20;100397.94;;;-1.03;100.00
71716;BME280;59568;52.128;5.434;2024-01-15T02:05:48;100400.66;;;-0.98;100.00
71716;BME280;59568;52.128;5.434;2024-01-15T02:08:16;100395.97;;;-0.89;100.00
71716;BME280;59568;52.128;5.434;2024-01-15T02:10:43;100403.38;;;-0.81;100.00
71716;BME280;59568;52.128;5.434;2024-01-15T02:13:11;100415.78;;;-0.66;100.00
71716;BME280;59568;52.128;5.434;2024-01-15T02:15:38;100439.00;;;-0.49;100.00
71716;BME280;59568;52.128;5.434;2024-01-15T02:18:06;100445.16;;;-0.27;100.00
71716;BME280;59568;52.128;5.434;2024-01-15T02:20:35;100425.66;;;-0.16;100.00
71716;BME280;59568;52.128;5.434;2024-01-15T02:25:42;100412.56;;;-0.14;100.00
71716;BME280;59568;52.128;5.434;2024-01-15T02:28:12;100406.09;;;-0.17;100.00
71716;BME280;59568;52.128;5.434;2024-01-15T02:30:40;100410.13;;;-0.21;100.00
71716;BME280;59568;52.128;5.434;2024-01-15T02:33:08;100403.09;;;-0.26;100.00
71716;BME280;59568;52.128;5.434;2024-01-15T02:35:36;100413.16;;;-0.24;100.00
71716;BME280;59568;52.128;5.434;2024-01-15T02:38:04;100406.44;;;-0.25;100.00
71716;BME280;59568;52.128;5.434;2024-01-15T02:40:31;100405.88;;;-0.27;100.00
71716;BME280;59568;52.128;5.434;2024-01-15T02:42:58;100401.72;;;-0.28;100.00
71716;BME280;59568;52.128;5.434;2024-01-15T02:45:25;100405.09;;;-0.28;100.00
71716;BME280;59568;52.128;5.434;2024-01-15T02:47:52;100399.16;;;-0.28;100.00
71716;BME280;59568;52.128;5.434;2024-01-15T02:50:19;100388.47;;;-0.25;100.00
71716;BME280;59568;52.128;5.434;2024-01-15T02:52:46;100399.28;;;-0.23;100.00
71716;BME280;59568;52.128;5.434;2024-01-15T02:55:13;100392.16;;;-0.21;100.00
71716;BME280;59568;52.128;5.434;2024-01-15T02:57:40;100391.38;;;-0.22;100.00
71716;BME280;59568;52.128;5.434;2024-01-15T03:00:07;100392.69;;;-0.19;100.00
71716;BME280;59568;52.128;5.434;2024-01-15T03:02:38;100391.47;;;-0.16;100.00
71716;BME280;59568;52.128;5.434;2024-01-15T03:05:14;100382.22;;;-0.17;100.00
71716;BME280;59568;52.128;5.434;2024-01-15T03:07:41;100381.44;;;-0.18;100.00
71716;BME280;59568;52.128;5.434;2024-01-15T03:10:08;100387.00;;;-0.21;100.00
71716;BME280;59568;52.128;5.434;2024-01-15T03:12:35;100383.88;;;-0.23;100.00
71716;BME280;59568;52.128;5.434;2024-01-15T03:15:02;100385.47;;;-0.22;100.00
71716;BME280;59568;52.128;5.434;2024-01-15T03:17:29;100383.66;;;-0.22;100.00
71716;BME280;59568;52.128;5.434;2024-01-15T03:19:56;100390.59;;;-0.22;100.00
71716;BME280;59568;52.128;5.434;2024-01-15T03:22:24;100388.25;;;-0.24;100.00
71716;BME280;59568;52.128;5.434;2024-01-15T03:24:50;100380.97;;;-0.27;100.00
71716;BME280;59568;52.128;5.434;2024-01-15T03:27:17;100379.66;;;-0.29;100.00
71716;BME280;59568;52.128;5.434;2024-01-15T03:29:44;100383.22;;;-0.30;100.00
71716;BME280;59568;52.128;5.434;2024-01-15T03:32:11;100385.56;;;-0.29;100.00
71716;BME280;59568;52.128;5.434;2024-01-15T03:34:38;100387.34;;;-0.29;100.00
71716;BME280;59568;52.128;5.434;2024-01-15T03:37:05;100404.88;;;-0.26;100.00
71716;BME280;59568;52.128;5.434;2024-01-15T03:39:32;100396.50;;;-0.22;100.00
71716;BME280;59568;52.128;5.434;2024-01-15T03:41:59;100405.53;;;-0.19;100.00
71716;BME280;59568;52.128;5.434;2024-01-15T03:44:26;100412.34;;;-0.13;100.00
71716;BME280;59568;52.128;5.434;2024-01-15T03:46:53;100412.47;;;-0.08;100.00
71716;BME280;59568;52.128;5.434;2024-01-15T03:49:20;100411.56;;;-0.02;100.00
71716;BME280;59568;52.128;5.434;2024-01-15T03:51:47;100400.06;;;0.01;100.00
71716;BME280;59568;52.128;5.434;2024-01-15T03:54:14;100376.94;;;0.01;100.00
71716;BME280;59568;52.128;5.434;2024-01-15T03:56:45;100377.72;;;0.02;100.00
71716;BME280;59568;52.128;5.434;2024-01-15T03:59:12;100358.97;;;0.01;100.00
71716;BME280;59568;52.128;5.434;2024-01-15T04:01:39;100359.66;;;-0.04;100.00
71716;BME280;59568;52.128;5.434;2024-01-15T04:04:06;100364.56;;;-0.14;100.00
71716;BME280;59568;52.128;5.434;2024-01-15T04:06:33;100361.56;;;-0.23;100.00
71716;BME280;59568;52.128;5.434;2024-01-15T04:09:00;100359.66;;;-0.27;100.00
71716;BME280;59568;52.128;5.434;2024-01-15T04:11:27;100344.59;;;-0.35;100.00
71716;BME280;59568;52.128;5.434;2024-01-15T04:13:54;100346.28;;;-0.41;100.00
71716;BME280;59568;52.128;5.434;2024-01-15T04:16:21;100345.94;;;-0.45;100.00
71716;BME280;59568;52.128;5.434;2024-01-15T04:18:47;100346.41;;;-0.48;100.00
71716;BME280;59568;52.128;5.434;2024-01-15T04:21:17;100350.41;;;-0.52;100.00
71716;BME280;59568;52.128;5.434;2024-01-15T04:23:45;100344.72;;;-0.54;100.00
71716;BME280;59568;52.128;5.434;2024-01-15T04:26:11;100341.59;;;-0.56;100.00
71716;BME280;59568;52.128;5.434;2024-01-15T04:28:38;100337.69;;;-0.58;100.00
71716;BME280;59568;52.128;5.434;2024-01-15T04:31:05;100332.22;;;-0.62;100.00
71716;BME280;59568;52.128;5.434;2024-01-15T04:33:32;100336.81;;;-0.64;100.00
71716;BME280;59568;52.128;5.434;2024-01-15T04:36:04;100329.75;;;-0.69;100.00
71716;BME280;59568;52.128;5.434;2024-01-15T04:38:32;100332.56;;;-0.70;100.00
71716;BME280;59568;52.128;5.434;2024-01-15T04:40:59;100323.75;;;-0.74;100.00
71716;BME280;59568;52.128;5.434;2024-01-15T04:43:26;100321.19;;;-0.74;100.00
71716;BME280;59568;52.128;5.434;2024-01-15T04:45:53;100322.19;;;-0.75;100.00
71716;BME280;59568;52.128;5.434;2024-01-15T04:48:20;100318.63;;;-0.74;100.00
71716;BME280;59568;52.128;5.434;2024-01-15T04:50:49;100318.06;;;-0.76;100.00
71716;BME280;59568;52.128;5.434;2024-01-15T04:53:17;100312.13;;;-0.77;100.00
71716;BME280;59568;52.128;5.434;2024-01-15T04:55:44;100307.34;;;-0.73;100.00
71716;BME280;59568;52.128;5.434;2024-01-15T04:58:11;100316.38;;;-0.71;100.00
71716;BME280;59568;52.128;5.434;2024-01-15T05:00:37;100316.28;;;-0.64;100.00
71716;BME280;59568;52.128;5.434;2024-01-15T05:03:05;100322.53;;;-0.60;100.00
71716;BME280;59568;52.128;5.434;2024-01-15T05:05:32;100319.28;;;-0.55;100.00
71716;BME280;59568;52.128;5.434;2024-01-15T05:07:58;100317.59;;;-0.50;100.00
71716;BME280;59568;52.128;5.434;2024-01-15T05:10:25;100311.47;;;-0.49;100.00
71716;BME280;59568;52.128;5.434;2024-01-15T05:12:52;100322.53;;;-0.48;100.00
71716;BME280;59568;52.128;5.434;2024-01-15T05:15:19;100313.03;;;-0.48;100.00
71716;BME280;59568;52.128;5.434;2024-01-15T05:17:46;100310.13;;;-0.51;100.00
71716;BME280;59568;52.128;5.434;2024-01-15T05:20:13;100299.88;;;-0.51;100.00
71716;BME280;59568;52.128;5.434;2024-01-15T05:22:41;100285.22;;;-0.51;100.00
71716;BME280;59568;52.128;5.434;2024-01-15T05:25:08;100289.94;;;-0.48;100.00
71716;BME280;59568;52.128;5.434;2024-01-15T05:27:35;100292.84;;;-0.44;100.00
71716;BME280;59568;52.128;5.434;2024-01-15T05:30:02;100295.16;;;-0.43;100.00
71716;BME280;59568;52.128;5.434;2024-01-15T05:32:29;100296.72;;;-0.42;100.00
71716;BME280;59568;52.128;5.434;2024-01-15T05:34:56;100295.97;;;-0.42;100.00
71716;BME280;59568;52.128;5.434;2024-01-15T05:37:23;100298.28;;;-0.41;100.00
71716;BME280;59568;52.128;5.434;2024-01-15T05:39:50;100301.94;;;-0.36;100.00
71716;BME280;59568;52.128;5.434;2024-01-15T05:42:16;100305.88;;;-0.34;100.00
71716;BME280;59568;52.128;5.434;2024-01-15T05:44:44;100307.97;;;-0.31;100.00
71716;BME280;59568;52.128;5.434;2024-01-15T05:47:10;100306.19;;;-0.30;100.00
71716;BME280;59568;52.128;5.434;2024-01-15T05:49:37;100313.88;;;-0.30;100.00
71716;BME280;59568;52.128;5.434;2024-01-15T05:52:05;100298.81;;;-0.27;100.00
71716;BME280;59568;52.128;5.434;2024-01-15T05:54:32;100302.97;;;-0.26;100.00
71716;BME280;59568;52.128;5.434;2024-01-15T05:56:59;100315.13;;;-0.21;100.00
71716;BME280;59568;52.128;5.434;2024-01-15T05:59:26;100306.41;;;-0.20;100.00
71716;BME280;59568;52.128;5.434;2024-01-15T06:01:53;100318.78;;;-0.17;100.00
71716;BME280;59568;52.128;5.434;2024-01-15T06:04:20;100314.97;;;-0.14;100.00
71716;BME280;59568;52.128;5.434;2024-01-15T06:06:47;100313.75;;;-0.12;100.00
71716;BME280;59568;52.128;5.434;2024-01-15T06:09:14;100315.88;;;-0.09;100.00
71716;BME280;59568;52.128;5.434;2024-01-15T06:11:41;100330.84;;;-0.06;100.00
71716;BME280;59568;52.128;5.434;2024-01-15T06:14:08;100334.41;;;-0.07;100.00
71716;BME280;59568;52.128;5.434;2024-01-15T06:16:35;100311.75;;;-0.10;100.00
71716;BME280;59568;52.128;5.434;2024-01-15T06:19:02;100305.72;;;-0.15;100.00
71716;BME280;59568;52.128;5.434;2024-01-15T06:21:30;100305.94;;;-0.17;100.00
71716;BME280;59568;52.128;5.434;2024-01-15T06:23:57;100295.13;;;-0.19;100.00
71716;BME280;59568;52.128;5.434;2024-01-15T06:26:24;100300.47;;;-0.21;100.00
71716;BME280;59568;52.128;5.434;2024-01-15T06:28:51;100302.28;;;-0.21;100.00
71716;BME280;59568;52.128;5.434;2024-01-15T06:31:18;100300.72;;;-0.22;100.00
71716;BME280;59568;52.128;5.434;2024-01-15T06:33:45;100297.34;;;-0.23;100.00
71716;BME280;59568;52.128;5.434;2024-01-15T06:36:15;100301.72;;;-0.23;100.00
71716;BME280;59568;52.128;5.434;2024-01-15T06:38:45;100285.75;;;-0.25;100.00
71716;BME280;59568;52.128;5.434;2024-01-15T06:41:12;100303.28;;;-0.22;100.00
71716;BME280;59568;52.128;5.434;2024-01-15T06:43:39;100290.47;;;-0.22;100.00
71716;BME280;59568;52.128;5.434;2024-01-15T06:46:06;100290.91;;;-0.25;100.00
71716;BME280;59568;52.128;5.434;2024-01-15T06:48:34;100292.91;;;-0.27;100.00
71716;BME280;59568;52.128;5.434;2024-01-15T06:51:02;100292.34;;;-0.29;100.00
71716;BME280;59568;52.128;5.434;2024-01-15T06:53:29;100291.81;;;-0.31;100.00
71716;BME280;59568;52.128;5.434;2024-01-15T06:55:56;100289.91;;;-0.36;100.00
71716;BME280;59568;52.128;5.434;2024-01-15T06:58:23;100280.66;;;-0.37;100.00
71716;BME280;59568;52.128;5.434;2024-01-15T07:00:50;100275.19;;;-0.41;100.00
71716;BME280;59568;52.128;5.434;2024-01-15T07:03:17;100271.63;;;-0.39;100.00
71716;BME280;59568;52.128;5.434;2024-01-15T07:05:44;100277.53;;;-0.39;100.00
71716;BME280;59568;52.128;5.434;2024-01-15T07:08:11;100274.75;;;-0.37;100.00
71716;BME280;59568;52.128;5.434;2024-01-15T07:10:38;100276.28;;;-0.36;100.00
71716;BME280;59568;52.128;5.434;2024-01-15T07:13:05;100281.97;;;-0.34;100.00
71716;BME280;59568;52.128;5.434;2024-01-15T07:15:32;100275.63;;;-0.32;100.00
71716;BME280;59568;52.128;5.434;2024-01-15T07:18:00;100278.97;;;-0.31;100.00
71716;BME280;59568;52.128;5.434;2024-01-15T07:20:27;100307.53;;;-0.28;100.00
71716;BME280;59568;52.128;5.434;2024-01-15T07:22:54;100316.78;;;-0.27;100.00
71716;BME280;59568;52.128;5.434;2024-01-15T07:25:21;100346.41;;;-0.24;100.00
71716;BME280;59568;52.128;5.434;2024-01-15T07:27:48;100324.28;;;-0.25;100.00
71716;BME280;59568;52.128;5.434;2024-01-15T07:30:15;100308.53;;;-0.29;100.00
71716;BME280;59568;52.128;5.434;2024-01-15T07:32:42;100298.72;;;-0.32;100.00
71716;BME280;59568;52.128;5.434;2024-01-15T07:35:10;100303.06;;;-0.32;100.00
71716;BME280;59568;52.128;5.434;2024-01-15T07:37:37;100296.38;;;-0.33;100.00
71716;BME280;59568;52.128;5.434;2024-01-15T07:40:05;100294.03;;;-0.35;100.00
71716;BME280;59568;52.128;5.434;2024-01-15T07:42:34;100297.63;;;-0.36;100.00
71716;BME280;59568;52.128;5.434;2024-01-15T07:45:01;100290.69;;;-0.35;100.00
71716;BME280;59568;52.128;5.434;2024-01-15T07:47:29;100294.81;;;-0.34;100.00
71716;BME280;59568;52.128;5.434;2024-01-15T07:49:56;100302.50;;;-0.34;100.00
71716;BME280;59568;52.128;5.434;2024-01-15T07:52:27;100314.13;;;-0.32;100.00
71716;BME280;59568;52.128;5.434;2024-01-15T07:54:54;100321.59;;;-0.30;100.00
71716;BME280;59568;52.128;5.434;2024-01-15T07:57:21;100316.25;;;-0.29;100.00
71716;BME280;59568;52.128;5.434;2024-01-15T07:59:49;100311.31;;;-0.30;100.00
71716;BME280;59568;52.128;5.434;2024-01-15T08:02:16;100315.13;;;-0.33;100.00
71716;BME280;59568;52.128;5.434;2024-01-15T08:04:43;100315.91;;;-0.32;100.00
71716;BME280;59568;52.128;5.434;2024-01-15T08:07:11;100318.47;;;-0.32;100.00
71716;BME280;59568;52.128;5.434;2024-01-15T08:09:40;100300.97;;;-0.35;100.00
71716;BME280;59568;52.128;5.434;2024-01-15T08:12:07;100296.03;;;-0.37;100.00
71716;BME280;59568;52.128;5.434;2024-01-15T08:14:34;100295.28;;;-0.37;100.00
71716;BME280;59568;52.128;5.434;2024-01-15T08:17:01;100291.59;;;-0.42;100.00
71716;BME280;59568;52.128;5.434;2024-01-15T08:19:28;100287.47;;;-0.43;100.00
71716;BME280;59568;52.128;5.434;2024-01-15T08:21:55;100288.47;;;-0.44;100.00
71716;BME280;59568;52.128;5.434;2024-01-15T08:24:22;100299.50;;;-0.43;100.00
71716;BME280;59568;52.128;5.434;2024-01-15T08:26:50;100302.84;;;-0.43;100.00
71716;BME280;59568;52.128;5.434;2024-01-15T08:29:16;100301.88;;;-0.42;100.00
71716;BME280;59568;52.128;5.434;2024-01-15T08:31:45;100302.41;;;-0.39;100.00
71716;BME280;59568;52.128;5.434;2024-01-15T08:34:12;100331.78;;;-0.35;100.00
71716;BME280;59568;52.128;5.434;2024-01-15T08:36:40;100318.94;;;-0.35;100.00
71716;BME280;59568;52.128;5.434;2024-01-15T08:39:07;100311.00;;;-0.34;100.00
71716;BME280;59568;52.128;5.434;2024-01-15T08:41:36;100301.53;;;-0.33;100.00
71716;BME280;59568;52.128;5.434;2024-01-15T08:44:03;100296.94;;;-0.31;100.00
71716;BME280;59568;52.128;5.434;2024-01-15T08:46:30;100297.72;;;-0.31;100.00
71716;BME280;59568;52.128;5.434;2024-01-15T08:48:57;100300.06;;;-0.29;100.00
71716;BME280;59568;52.128;5.434;2024-01-15T08:51:24;100300.94;;;-0.24;100.00
71716;BME280;59568;52.128;5.434;2024-01-15T08:53:52;100300.81;;;-0.17;100.00
71716;BME280;59568;52.128;5.434;2024-01-15T08:56:19;100301.16;;;-0.13;100.00
71716;BME280;59568;52.128;5.434;2024-01-15T08:58:46;100299.91;;;-0.11;100.00
71716;BME280;59568;52.128;5.434;2024-01-15T09:01:13;100311.75;;;-0.10;100.00
71716;BME280;59568;52.128;5.434;2024-01-15T09:03:40;100310.19;;;-0.11;100.00
71716;BME280;59568;52.128;5.434;2024-01-15T09:06:10;100315.31;;;-0.11;100.00
71716;BME280;59568;52.128;5.434;2024-01-15T09:08:38;100317.44;;;-0.08;100.00
71716;BME280;59568;52.128;5.434;2024-01-15T09:11:05;100323.31;;;0.05;100.00
71716;BME280;59568;52.128;5.434;2024-01-15T09:13:32;100331.78;;;0.17;100.00
71716;BME280;59568;52.128;5.434;2024-01-15T09:15:59;100339.00;;;0.20;100.00
71716;BME280;59568;52.128;5.434;2024-01-15T09:18:27;100331.78;;;0.17;100.00
71716;BME280;59568;52.128;5.434;2024-01-15T09:20:55;100314.78;;;0.16;100.00
71716;BME280;59568;52.128;5.434;2024-01-15T09:23:22;100313.03;;;0.16;100.00
71716;BME280;59568;52.128;5.434;2024-01-15T09:25:49;100311.66;;;0.14;100.00
71716;BME280;59568;52.128;5.434;2024-01-15T09:28:16;100308.09;;;0.15;100.00
71716;BME280;59568;52.128;5.434;2024-01-15T09:30:43;100313.69;;;0.12;100.00
71716;BME280;59568;52.128;5.434;2024-01-15T09:33:12;100315.16;;;0.08;100.00
71716;BME280;59568;52.128;5.434;2024-01-15T09:35:39;100324.31;;;0.04;100.00
71716;BME280;59568;52.128;5.434;2024-01-15T09:38:06;100312.72;;;0.01;100.00
71716;BME280;59568;52.128;5.434;2024-01-15T09:40:33;100315.06;;;0.03;100.00
71716;BME280;59568;52.128;5.434;2024-01-15T09:43:01;100313.13;;;0.10;100.00
71716;BME280;59568;52.128;5.434;2024-01-15T09:45:29;100305.03;;;0.30;100.00
71716;BME280;59568;52.128;5.434;2024-01-15T09:47:57;100309.97;;;0.48;100.00
71716;BME280;59568;52.128;5.434;2024-01-15T09:50:24;100310.78;;;0.49;100.00
71716;BME280;59568;52.128;5.434;2024-01-15T09:52:52;100307.88;;;0.45;100.00
71716;BME280;59568;52.128;5.434;2024-01-15T09:55:19;100309.56;;;0.39;100.00
71716;BME280;59568;52.128;5.434;2024-01-15T09:57:47;100311.38;;;0.39;100.00
71716;BME280;59568;52.128;5.434;2024-01-15T10:00:17;100307.00;;;0.39;100.00
71716;BME280;59568;52.128;5.434;2024-01-15T10:02:45;100317.28;;;0.39;100.00
71716;BME280;59568;52.128;5.434;2024-01-15T10:05:12;100316.28;;;0.41;100.00
71716;BME280;59568;52.128;5.434;2024-01-15T10:07:40;100328.28;;;0.52;100.00
71716;BME280;59568;52.128;5.434;2024-01-15T10:10:07;100328.19;;;0.75;100.00
71716;BME280;59568;52.128;5.434;2024-01-15T10:12:34;100345.81;;;1.17;100.00
71716;BME280;59568;52.128;5.434;2024-01-15T10:15:03;100329.75;;;1.27;100.00
71716;BME280;59568;52.128;5.434;2024-01-15T10:17:31;100311.88;;;1.20;100.00
71716;BME280;59568;52.128;5.434;2024-01-15T10:19:58;100312.06;;;1.14;100.00
71716;BME280;59568;52.128;5.434;2024-01-15T10:22:25;100324.47;;;1.17;100.00
71716;BME280;59568;52.128;5.434;2024-01-15T10:24:53;100317.50;;;1.34;100.00
71716;BME280;59568;52.128;5.434;2024-01-15T10:27:20;100333.28;;;1.60;100.00
71716;BME280;59568;52.128;5.434;2024-01-15T10:29:47;100335.19;;;1.48;100.00
71716;BME280;59568;52.128;5.434;2024-01-15T10:32:14;100335.84;;;1.21;100.00
71716;BME280;59568;52.128;5.434;2024-01-15T10:34:41;100326.25;;;0.99;100.00
71716;BME280;59568;52.128;5.434;2024-01-15T10:37:10;100328.81;;;0.83;100.00
71716;BME280;59568;52.128;5.434;2024-01-15T10:39:37;100330.91;;;0.69;100.00
71716;BME280;59568;52.128;5.434;2024-01-15T10:42:06;100322.00;;;0.59;100.00
71716;BME280;59568;52.128;5.434;2024-01-15T10:44:34;100315.53;;;0.57;100.00
71716;BME280;59568;52.128;5.434;2024-01-15T10:47:02;100325.22;;;0.67;100.00
71716;BME280;59568;52.128;5.434;2024-01-15T10:49:30;100318.06;;;0.86;100.00
71716;BME280;59568;52.128;5.434;2024-01-15T10:52:02;100324.06;;;0.91;100.00
71716;BME280;59568;52.128;5.434;2024-01-15T10:54:31;100326.31;;;0.88;100.00
71716;BME280;59568;52.128;5.434;2024-01-15T10:56:59;100336.00;;;0.97;100.00
71716;BME280;59568;52.128;5.434;2024-01-15T10:59:27;100335.53;;;1.17;100.00
71716;BME280;59568;52.128;5.434;2024-01-15T11:01:54;100344.41;;;1.27;100.00
71716;BME280;59568;52.128;5.434;2024-01-15T11:04:22;100344.41;;;1.27;100.00
71716;BME280;59568;52.128;5.434;2024-01-15T11:06:52;100346.59;;;1.35;100.00
71716;BME280;59568;52.128;5.434;2024-01-15T11:09:24;100351.91;;;1.45;100.00
71716;BME280;59568;52.128;5.434;2024-01-15T11:12:06;100358.44;;;1.36;100.00
71716;BME280;59568;52.128;5.434;2024-01-15T11:15:01;100354.56;;;1.33;100.00
71716;BME280;59568;52.128;5.434;2024-01-15T11:17:57;100365.00;;;1.27;100.00
71716;BME280;59568;52.128;5.434;2024-01-15T11:20:26;100358.06;;;1.27;100.00
71716;BME280;59568;52.128;5.434;2024-01-15T11:22:53;100355.50;;;1.27;100.00
71716;BME280;59568;52.128;5.434;2024-01-15T11:25:20;100360.09;;;1.25;100.00
71716;BME280;59568;52.128;5.434;2024-01-15T11:27:49;100362.25;;;1.16;100.00
71716;BME280;59568;52.128;5.434;2024-01-15T11:30:24;100365.63;;;1.17;100.00
71716;BME280;59568;52.128;5.434;2024-01-15T11:32:52;100353.53;;;1.17;100.00
71716;BME280;59568;52.128;5.434;2024-01-15T11:35:19;100354.69;;;1.27;100.00
71716;BME280;59568;52.128;5.434;2024-01-15T11:42:59;100353.97;;;1.48;100.00
71716;BME280;59568;52.128;5.434;2024-01-15T11:45:27;100354.22;;;1.47;100.00
71716;BME280;59568;52.128;5.434;2024-01-15T11:48:14;100353.59;;;1.56;100.00
71716;BME280;59568;52.128;5.434;2024-01-15T11:50:47;100357.09;;;1.67;100.00
71716;BME280;59568;52.128;5.434;2024-01-15T11:53:43;100369.72;;;1.69;100.00
71716;BME280;59568;52.128;5.434;2024-01-15T11:56:15;100368.09;;;1.63;100.00
71716;BME280;59568;52.128;5.434;2024-01-15T11:58:43;100359.34;;;1.64;100.00
71716;BME280;59568;52.128;5.434;2024-01-15T12:01:11;100356.84;;;1.69;100.00
71716;BME280;59568;52.128;5.434;2024-01-15T12:03:38;100363.69;;;1.80;100.00
71716;BME280;59568;52.128;5.434;2024-01-15T12:06:06;100357.88;;;1.90;100.00
71716;BME280;59568;52.128;5.434;2024-01-15T12:08:34;100372.22;;;2.03;100.00
71716;BME280;59568;52.128;5.434;2024-01-15T12:11:07;100378.50;;;2.12;100.00
71716;BME280;59568;52.128;5.434;2024-01-15T12:13:38;100385.63;;;2.05;100.00
71716;BME280;59568;52.128;5.434;2024-01-15T12:16:05;100394.56;;;1.97;100.00
71716;BME280;59568;52.128;5.434;2024-01-15T12:18:32;100392.56;;;1.82;100.00
71716;BME280;59568;52.128;5.434;2024-01-15T12:20:59;100400.16;;;1.72;100.00
71716;BME280;59568;52.128;5.434;2024-01-15T12:23:26;100407.13;;;1.54;100.00
71716;BME280;59568;52.128;5.434;2024-01-15T12:25:54;100405.66;;;1.42;100.00
71716;BME280;59568;52.128;5.434;2024-01-15T12:28:22;100405.56;;;1.36;100.00
71716;BME280;59568;52.128;5.434;2024-01-15T12:30:49;100401.50;;;1.40;100.00
71716;BME280;59568;52.128;5.434;2024-01-15T12:33:18;100400.09;;;1.50;100.00
71716;BME280;59568;52.128;5.434;2024-01-15T12:35:47;100404.75;;;1.53;100.00
71716;BME280;59568;52.128;5.434;2024-01-15T12:38:14;100411.00;;;1.57;100.00
71716;BME280;59568;52.128;5.434;2024-01-15T12:40:43;100425.91;;;1.55;100.00
71716;BME280;59568;52.128;5.434;2024-01-15T12:43:13;100419.44;;;1.52;100.00
71716;BME280;59568;52.128;5.434;2024-01-15T12:45:40;100424.94;;;1.39;100.00
71716;BME280;59568;52.128;5.434;2024-01-15T12:48:07;100416.31;;;1.16;100.00
71716;BME280;59568;52.128;5.434;2024-01-15T12:50:34;100417.06;;;1.00;100.00
71716;BME280;59568;52.128;5.434;2024-01-15T12:53:02;100418.22;;;0.92;100.00